createdAt,value
2019-05-02T00:00:59.925Z,97313.00
2019-05-02T00:02:04.509Z,97313.56
2019-05-02T00:03:07.436Z,97307.75
2019-05-02T00:04:12.343Z,97313.62
2019-05-02T00:05:15.967Z,97310.02
2019-05-02T00:06:18.957Z,97313.97
2019-05-02T00:07:21.758Z,97311.77
2019-05-02T00:08:29.249Z,97311.61
2019-05-02T00:09:33.407Z,97316.31
2019-05-02T00:10:35.347Z,97316.89
2019-05-02T00:11:38.698Z,97310.69
2019-05-02T00:12:43.363Z,97311.31
2019-05-02T00:13:46.081Z,97307.45
2019-05-02T00:14:48.966Z,97309.98
2019-05-02T00:15:51.986Z,97310.17
2019-05-02T00:16:56.651Z,97302.20
2019-05-02T00:18:01.408Z,97300.72
2019-05-02T00:19:04.010Z,97303.17
2019-05-02T00:20:08.906Z,97308.25
2019-05-02T00:21:12.002Z,97301.67
2019-05-02T00:22:17.302Z,97302.28
2019-05-02T00:23:22.952Z,97297.54
2019-05-02T00:24:24.766Z,97298.20
2019-05-02T00:25:27.356Z,97301.33
2019-05-02T00:26:30.998Z,97302.04
2019-05-02T00:27:37.835Z,97302.37
2019-05-02T00:28:38.044Z,97294.05
2019-05-02T00:29:40.836Z,97299.83
2019-05-02T00:30:43.451Z,97300.05
2019-05-02T00:31:46.975Z,97295.17
2019-05-02T00:32:53.130Z,97295.09
2019-05-02T00:33:54.350Z,97295.23
2019-05-02T00:34:57.129Z,97294.19
2019-05-02T00:35:59.662Z,97297.06
2019-05-02T00:37:01.361Z,97307.52
2019-05-02T00:38:05.312Z,97300.27
2019-05-02T00:39:09.629Z,97297.99
2019-05-02T00:40:13.176Z,97299.16
2019-05-02T00:41:16.357Z,97294.58
2019-05-02T00:42:22.564Z,97292.34
2019-05-02T00:43:23.378Z,97293.52
2019-05-02T00:44:25.965Z,97293.30
2019-05-02T00:45:28.667Z,97293.96
2019-05-02T00:46:35.066Z,97294.47
2019-05-02T00:47:42.284Z,97291.22
2019-05-02T00:48:47.365Z,97294.17
2019-05-02T00:49:49.715Z,97286.27
2019-05-02T00:50:54.393Z,97293.30
2019-05-02T00:52:01.409Z,97289.38
2019-05-02T00:53:07.188Z,97285.55
2019-05-02T00:54:07.689Z,97290.13
2019-05-02T00:55:11.001Z,97291.23
2019-05-02T00:56:13.733Z,97285.61
2019-05-02T00:57:20.065Z,97284.86
2019-05-02T00:58:20.330Z,97288.05
2019-05-02T00:59:23.371Z,97288.94
2019-05-02T01:00:25.479Z,97285.16
2019-05-02T01:01:43.142Z,97287.60
2019-05-02T01:02:52.975Z,97285.16
2019-05-02T01:04:03.115Z,97282.59
2019-05-02T01:05:06.016Z,97281.45
2019-05-02T01:06:13.745Z,97280.28
2019-05-02T01:07:13.386Z,97277.08
2019-05-02T01:08:16.003Z,97274.57
2019-05-02T01:09:19.140Z,97271.48
2019-05-02T01:10:21.380Z,97271.56
2019-05-02T01:11:28.278Z,97272.22
2019-05-02T01:12:28.965Z,97265.63
2019-05-02T01:13:30.885Z,97267.26
2019-05-02T01:14:33.355Z,97264.16
2019-05-02T01:15:38.960Z,97263.41
2019-05-02T01:16:39.624Z,97257.80
2019-05-02T01:17:41.942Z,97255.78
2019-05-02T01:18:45.017Z,97256.08
2019-05-02T01:19:51.349Z,97262.45
2019-05-02T01:20:51.730Z,97260.44
2019-05-02T01:21:53.605Z,97257.19
2019-05-02T01:22:56.126Z,97258.52
2019-05-02T01:24:02.994Z,97259.28
2019-05-02T01:25:06.320Z,97261.33
2019-05-02T01:26:10.498Z,97262.38
2019-05-02T01:27:14.908Z,97254.09
2019-05-02T01:28:19.107Z,97253.18
2019-05-02T01:29:24.895Z,97251.84
2019-05-02T01:30:42.289Z,97253.42
2019-05-02T01:31:54.792Z,97253.18
2019-05-02T01:33:06.732Z,97252.32
2019-05-02T01:34:18.127Z,97253.12
2019-05-02T01:35:19.679Z,97257.19
2019-05-02T01:36:30.025Z,97251.28
2019-05-02T01:37:50.958Z,97258.83
2019-05-02T01:38:55.723Z,97253.11
2019-05-02T01:39:57.965Z,97252.02
2019-05-02T01:41:00.329Z,97254.06
2019-05-02T01:42:04.294Z,97244.52
2019-05-02T01:43:24.033Z,97248.81
2019-05-02T01:44:31.061Z,97248.02
2019-05-02T01:45:32.062Z,97241.49
2019-05-02T01:46:34.359Z,97243.87
2019-05-02T01:47:36.961Z,97241.20
2019-05-02T01:48:45.764Z,97244.59
2019-05-02T01:49:44.977Z,97248.46
2019-05-02T01:50:48.218Z,97237.55
2019-05-02T01:51:50.507Z,97244.98
2019-05-02T01:52:53.655Z,97238.66
2019-05-02T01:53:57.283Z,97236.31
2019-05-02T01:54:59.837Z,97243.19
2019-05-02T01:56:03.725Z,97244.75
2019-05-02T01:57:08.671Z,97245.31
2019-05-02T01:58:14.885Z,97244.68
2019-05-02T01:59:16.753Z,97241.59
2019-05-02T02:00:19.481Z,97247.50
2019-05-02T02:01:23.373Z,97242.16
2019-05-02T02:02:32.734Z,97230.64
2019-05-02T02:03:32.405Z,97244.65
2019-05-02T02:04:34.817Z,97239.48
2019-05-02T02:05:37.478Z,97240.73
2019-05-02T02:06:43.431Z,97239.16
2019-05-02T02:07:43.744Z,97238.66
2019-05-02T02:08:46.287Z,97242.89
2019-05-02T02:09:49.584Z,97240.47
2019-05-02T02:10:56.453Z,97246.81
2019-05-02T02:11:56.686Z,97240.58
2019-05-02T02:13:04.632Z,97239.16
2019-05-02T02:14:07.408Z,97240.49
2019-05-02T02:15:09.006Z,97242.16
2019-05-02T02:16:11.692Z,97235.13
2019-05-02T02:17:15.575Z,97246.94
2019-05-02T02:18:22.345Z,97251.30
2019-05-02T02:19:34.701Z,97245.19
2019-05-02T02:20:49.049Z,97245.11
2019-05-02T02:21:57.408Z,97241.98
2019-05-02T02:23:18.200Z,97242.20
2019-05-02T02:24:28.842Z,97241.73
2019-05-02T02:25:37.960Z,97242.20
2019-05-02T02:26:43.662Z,97241.78
2019-05-02T02:27:45.410Z,97239.66
2019-05-02T02:28:47.816Z,97243.69
2019-05-02T02:29:50.112Z,97239.28
2019-05-02T02:30:57.720Z,97241.36
2019-05-02T02:31:56.199Z,97244.69
2019-05-02T02:33:00.367Z,97242.02
2019-05-02T02:34:02.653Z,97248.09
2019-05-02T02:35:10.074Z,97251.83
2019-05-02T02:36:10.277Z,97245.05
2019-05-02T02:37:15.121Z,97238.73
2019-05-02T02:38:17.193Z,97248.70
2019-05-02T02:39:19.574Z,97246.86
2019-05-02T02:40:32.592Z,97245.95
2019-05-02T02:41:26.350Z,97243.64
2019-05-02T02:42:31.555Z,97249.23
2019-05-02T02:43:34.612Z,97242.02
2019-05-02T02:44:50.769Z,97251.27
2019-05-02T02:46:11.466Z,97247.46
2019-05-02T02:47:18.942Z,97243.77
2019-05-02T02:48:22.457Z,97246.75
2019-05-02T02:49:24.888Z,97249.55
2019-05-02T02:50:27.395Z,97247.38
2019-05-02T02:51:29.693Z,97246.93
2019-05-02T02:52:37.905Z,97240.69
2019-05-02T02:53:36.472Z,97244.36
2019-05-02T02:54:43.279Z,97242.08
2019-05-02T02:55:44.621Z,97244.33
2019-05-02T02:56:47.035Z,97243.61
2019-05-02T02:57:50.170Z,97243.00
2019-05-02T02:58:52.094Z,97239.59
2019-05-02T03:00:06.425Z,97239.52
2019-05-02T03:00:58.907Z,97245.59
2019-05-02T03:02:08.717Z,97246.34
2019-05-02T03:03:06.272Z,97235.55
2019-05-02T03:04:11.779Z,97243.30
2019-05-02T03:05:18.529Z,97239.89
2019-05-02T03:06:17.406Z,97240.93
2019-05-02T03:07:25.592Z,97238.56
2019-05-02T03:08:24.613Z,97246.25
2019-05-02T03:09:29.071Z,97245.51
2019-05-02T03:10:33.232Z,97242.64
2019-05-02T03:11:38.392Z,97243.68
2019-05-02T03:12:43.154Z,97240.55
2019-05-02T03:14:05.680Z,97244.18
2019-05-02T03:15:07.275Z,97247.66
2019-05-02T03:16:21.068Z,97248.61
2019-05-02T03:17:26.747Z,97247.96
2019-05-02T03:18:39.722Z,97252.39
2019-05-02T03:19:32.176Z,97252.06
2019-05-02T03:20:40.591Z,97249.70
2019-05-02T03:21:40.748Z,97249.65
2019-05-02T03:22:43.788Z,97253.75
2019-05-02T03:23:46.506Z,97253.64
2019-05-02T03:24:48.447Z,97252.16
2019-05-02T03:25:51.673Z,97251.39
2019-05-02T03:26:55.653Z,97252.36
2019-05-02T03:27:58.812Z,97254.14
2019-05-02T03:29:01.289Z,97252.80
2019-05-02T03:30:04.974Z,97253.95
2019-05-02T03:31:20.980Z,97247.37
2019-05-02T03:32:16.982Z,97247.04
2019-05-02T03:33:16.944Z,97252.61
2019-05-02T03:34:20.692Z,97253.93
2019-05-02T03:35:40.538Z,97253.34
2019-05-02T03:36:34.930Z,97261.82
2019-05-02T03:37:34.153Z,97255.91
2019-05-02T03:38:36.802Z,97256.41
2019-05-02T03:39:40.341Z,97253.37
2019-05-02T03:40:43.190Z,97259.84
2019-05-02T03:41:46.229Z,97259.19
2019-05-02T03:42:48.367Z,97258.13
2019-05-02T03:44:09.102Z,97264.42
2019-05-02T03:45:00.120Z,97267.61
2019-05-02T03:45:59.100Z,97260.48
2019-05-02T03:47:04.633Z,97267.61
2019-05-02T03:48:07.252Z,97267.08
2019-05-02T03:49:09.939Z,97269.46
2019-05-02T03:50:12.651Z,97264.80
2019-05-02T03:51:21.307Z,97265.04
2019-05-02T03:52:19.259Z,97268.17
2019-05-02T03:53:25.455Z,97262.77
2019-05-02T03:54:29.259Z,97258.87
2019-05-02T03:55:34.023Z,97258.16
2019-05-02T03:56:36.613Z,97255.38
2019-05-02T03:57:41.897Z,97258.16
2019-05-02T03:58:48.738Z,97257.16
2019-05-02T03:59:47.972Z,97256.26
2019-05-02T04:01:00.383Z,97254.99
2019-05-02T04:01:54.007Z,97255.67
2019-05-02T04:03:00.351Z,97258.04
2019-05-02T04:04:01.614Z,97248.33
2019-05-02T04:05:05.242Z,97255.76
2019-05-02T04:06:14.119Z,97252.61
2019-05-02T04:07:14.386Z,97253.48
2019-05-02T04:08:21.288Z,97251.21
2019-05-02T04:09:39.160Z,97252.54
2019-05-02T04:10:52.716Z,97250.05
2019-05-02T04:11:54.429Z,97252.84
2019-05-02T04:12:58.412Z,97256.97
2019-05-02T04:14:01.844Z,97256.41
2019-05-02T04:15:04.722Z,97262.12
2019-05-02T04:16:14.621Z,97255.77
2019-05-02T04:17:11.690Z,97258.66
2019-05-02T04:18:15.686Z,97262.29
2019-05-02T04:19:19.110Z,97252.62
2019-05-02T04:20:22.298Z,97253.77
2019-05-02T04:21:26.572Z,97252.73
2019-05-02T04:22:30.390Z,97252.50
2019-05-02T04:23:34.831Z,97257.16
2019-05-02T04:24:37.318Z,97245.77
2019-05-02T04:25:40.456Z,97248.16
2019-05-02T04:26:53.811Z,97250.83
2019-05-02T04:27:49.528Z,97255.76
2019-05-02T04:28:52.255Z,97249.37
2019-05-02T04:29:56.394Z,97250.55
2019-05-02T04:30:59.210Z,97247.41
2019-05-02T04:32:04.211Z,97248.24
2019-05-02T04:33:06.343Z,97252.17
2019-05-02T04:34:15.104Z,97256.41
2019-05-02T04:35:12.288Z,97257.08
2019-05-02T04:36:17.520Z,97258.78
2019-05-02T04:37:18.481Z,97255.94
2019-05-02T04:38:31.010Z,97252.54
2019-05-02T04:39:28.440Z,97251.21
2019-05-02T04:40:35.120Z,97243.85
2019-05-02T04:41:34.463Z,97252.17
2019-05-02T04:42:39.260Z,97250.73
2019-05-02T04:43:54.560Z,97248.32
2019-05-02T04:45:09.427Z,97241.72
2019-05-02T04:45:56.104Z,97254.52
2019-05-02T04:47:02.781Z,97257.45
2019-05-02T04:48:03.889Z,97248.14
2019-05-02T04:49:02.877Z,97251.95
2019-05-02T04:50:17.536Z,97243.88
2019-05-02T04:51:16.256Z,97246.63
2019-05-02T04:52:20.142Z,97240.75
2019-05-02T04:53:25.812Z,97250.59
2019-05-02T04:54:31.321Z,97252.06
2019-05-02T04:55:32.883Z,97247.70
2019-05-02T04:56:33.098Z,97252.13
2019-05-02T04:57:41.105Z,97247.40
2019-05-02T04:58:40.698Z,97244.23
2019-05-02T04:59:43.291Z,97245.51
2019-05-02T05:00:53.498Z,97245.42
2019-05-02T05:01:56.906Z,97249.35
2019-05-02T05:02:54.634Z,97251.63
2019-05-02T05:03:58.617Z,97253.99
2019-05-02T05:05:01.355Z,97256.50
2019-05-02T05:06:08.060Z,97253.13
2019-05-02T05:07:09.267Z,97257.54
2019-05-02T05:08:17.491Z,97249.23
2019-05-02T05:09:18.052Z,97250.70
2019-05-02T05:10:20.623Z,97256.17
2019-05-02T05:11:24.943Z,97255.23
2019-05-02T05:12:27.874Z,97252.52
2019-05-02T05:13:32.216Z,97255.35
2019-05-02T05:14:39.241Z,97259.91
2019-05-02T05:15:48.409Z,97260.10
2019-05-02T05:16:45.512Z,97259.09
2019-05-02T05:17:50.043Z,97254.29
2019-05-02T05:18:53.279Z,97251.27
2019-05-02T05:19:57.727Z,97252.22
2019-05-02T05:21:02.188Z,97247.28
2019-05-02T05:22:06.299Z,97245.30
2019-05-02T05:23:09.266Z,97251.17
2019-05-02T05:24:11.566Z,97243.92
2019-05-02T05:25:24.989Z,97246.30
2019-05-02T05:26:33.815Z,97247.34
2019-05-02T05:27:37.741Z,97242.15
2019-05-02T05:28:44.207Z,97239.28
2019-05-02T05:29:46.085Z,97243.05
2019-05-02T05:30:51.894Z,97245.05
2019-05-02T05:31:55.234Z,97242.79
2019-05-02T05:32:58.313Z,97236.93
2019-05-02T05:34:03.465Z,97238.97
2019-05-02T05:35:09.011Z,97233.96
2019-05-02T05:36:11.755Z,97235.54
2019-05-02T05:37:13.855Z,97240.28
2019-05-02T05:38:18.188Z,97225.72
2019-05-02T05:39:22.517Z,97230.72
2019-05-02T05:40:30.399Z,97235.25
2019-05-02T05:41:29.305Z,97233.88
2019-05-02T05:42:33.412Z,97236.95
2019-05-02T05:43:38.006Z,97230.22
2019-05-02T05:44:40.609Z,97239.58
2019-05-02T05:45:53.458Z,97244.41
2019-05-02T05:46:49.434Z,97238.70
2019-05-02T05:47:52.305Z,97233.59
2019-05-02T05:48:57.817Z,97229.47
2019-05-02T05:50:01.189Z,97235.45
2019-05-02T05:51:04.693Z,97227.42
2019-05-02T05:52:08.037Z,97231.95
2019-05-02T05:53:12.417Z,97232.91
2019-05-02T05:54:14.219Z,97232.34
2019-05-02T05:55:20.409Z,97231.75
2019-05-02T05:56:21.381Z,97232.41
2019-05-02T05:57:24.102Z,97229.59
2019-05-02T05:58:28.317Z,97235.20
2019-05-02T05:59:33.241Z,97232.78
2019-05-02T06:00:38.055Z,97232.83
2019-05-02T06:01:40.563Z,97243.81
2019-05-02T06:02:53.247Z,97238.81
2019-05-02T06:03:47.605Z,97235.30
2019-05-02T06:04:50.303Z,97231.62
2019-05-02T06:05:53.995Z,97234.72
2019-05-02T06:06:59.417Z,97236.31
2019-05-02T06:08:01.208Z,97236.57
2019-05-02T06:09:07.071Z,97236.59
2019-05-02T06:10:10.051Z,97231.23
2019-05-02T06:11:14.885Z,97236.84
2019-05-02T06:12:17.600Z,97239.16
2019-05-02T06:13:20.350Z,97230.42
2019-05-02T06:14:24.874Z,97229.61
2019-05-02T06:15:28.324Z,97229.91
2019-05-02T06:16:30.885Z,97228.33
2019-05-02T06:17:33.784Z,97226.97
2019-05-02T06:18:36.400Z,97226.55
2019-05-02T06:19:41.556Z,97227.42
2019-05-02T06:20:44.643Z,97227.87
2019-05-02T06:21:50.724Z,97228.61
2019-05-02T06:22:55.090Z,97225.46
2019-05-02T06:23:57.839Z,97223.30
2019-05-02T06:25:09.176Z,97233.03
2019-05-02T06:26:13.630Z,97229.84
2019-05-02T06:27:15.194Z,97220.19
2019-05-02T06:28:19.197Z,97222.02
2019-05-02T06:29:21.516Z,97227.66
2019-05-02T06:30:27.093Z,97223.84
2019-05-02T06:31:28.543Z,97220.69
2019-05-02T06:32:30.707Z,97227.16
2019-05-02T06:33:35.473Z,97226.13
2019-05-02T06:34:38.836Z,97212.86
2019-05-02T06:35:42.122Z,97230.61
2019-05-02T06:36:44.776Z,97217.63
2019-05-02T06:37:50.084Z,97218.13
2019-05-02T06:38:56.563Z,97229.28
2019-05-02T06:40:08.155Z,97219.46
2019-05-02T06:41:10.029Z,97221.72
2019-05-02T06:42:12.837Z,97214.68
2019-05-02T06:43:15.609Z,97227.76
2019-05-02T06:44:23.217Z,97220.98
2019-05-02T06:45:23.136Z,97227.92
2019-05-02T06:46:27.608Z,97220.45
2019-05-02T06:47:35.842Z,97222.27
2019-05-02T06:48:36.449Z,97228.81
2019-05-02T06:49:38.599Z,97223.19
2019-05-02T06:50:42.247Z,97224.22
2019-05-02T06:51:44.753Z,97229.00
2019-05-02T06:52:47.255Z,97219.91
2019-05-02T06:53:52.209Z,97221.96
2019-05-02T06:54:57.628Z,97217.39
2019-05-02T06:55:59.441Z,97221.88
2019-05-02T06:57:01.986Z,97217.79
2019-05-02T06:58:08.013Z,97223.20
2019-05-02T06:59:13.154Z,97222.08
2019-05-02T07:00:15.217Z,97215.91
2019-05-02T07:01:21.276Z,97213.67
2019-05-02T07:02:22.583Z,97217.39
2019-05-02T07:03:27.578Z,97221.59
2019-05-02T07:04:29.916Z,97214.36
2019-05-02T07:05:32.597Z,97216.45
2019-05-02T07:06:49.805Z,97213.52
2019-05-02T07:07:40.142Z,97221.40
2019-05-02T07:08:42.928Z,97204.55
2019-05-02T07:09:45.406Z,97200.38
2019-05-02T07:10:48.331Z,97200.38
2019-05-02T07:11:57.437Z,97194.88
2019-05-02T07:13:10.210Z,97197.40
2019-05-02T07:14:13.044Z,97199.96
2019-05-02T07:15:16.787Z,97201.59
2019-05-02T07:16:38.577Z,97200.46
2019-05-02T07:17:38.932Z,97204.00
2019-05-02T07:18:47.735Z,97189.86
2019-05-02T07:20:03.845Z,97195.80
2019-05-02T07:21:12.142Z,97208.05
2019-05-02T07:22:13.136Z,97196.46
2019-05-02T07:23:18.406Z,97201.29
2019-05-02T07:24:25.315Z,97198.82
2019-05-02T07:25:26.184Z,97200.15
2019-05-02T07:26:28.398Z,97200.56
2019-05-02T07:27:33.766Z,97193.07
2019-05-02T07:28:40.353Z,97192.09
2019-05-02T07:29:40.105Z,97182.09
2019-05-02T07:30:43.816Z,97191.80
2019-05-02T07:31:48.906Z,97203.13
2019-05-02T07:32:56.367Z,97200.56
2019-05-02T07:33:56.729Z,97196.98
2019-05-02T07:34:59.659Z,97199.76
2019-05-02T07:36:03.987Z,97195.77
2019-05-02T07:37:08.415Z,97193.65
2019-05-02T07:38:13.243Z,97188.92
2019-05-02T07:39:16.177Z,97193.83
2019-05-02T07:40:19.405Z,97189.95
2019-05-02T07:41:24.277Z,97170.93
2019-05-02T07:42:25.800Z,97180.37
2019-05-02T07:43:30.294Z,97192.14
2019-05-02T07:44:34.534Z,97190.72
2019-05-02T07:45:40.392Z,97183.22
2019-05-02T07:46:51.539Z,97193.94
2019-05-02T07:47:45.767Z,97187.00
2019-05-02T07:48:54.460Z,97179.61
2019-05-02T07:49:54.672Z,97191.22
2019-05-02T07:50:57.215Z,97191.10
2019-05-02T07:51:59.791Z,97189.36
2019-05-02T07:53:04.542Z,97184.64
2019-05-02T07:54:06.862Z,97196.58
2019-05-02T07:55:10.184Z,97188.69
2019-05-02T07:56:17.779Z,97190.72
2019-05-02T07:57:19.725Z,97186.05
2019-05-02T07:58:21.563Z,97187.67
2019-05-02T07:59:25.102Z,97182.92
2019-05-02T08:00:32.083Z,97181.65
2019-05-02T08:01:32.503Z,97186.95
2019-05-02T08:02:34.848Z,97186.30
2019-05-02T08:03:36.597Z,97186.16
2019-05-02T08:04:43.593Z,97185.41
2019-05-02T08:05:43.662Z,97180.84
2019-05-02T08:06:46.458Z,97192.39
2019-05-02T08:07:53.490Z,97176.84
2019-05-02T08:08:54.682Z,97185.03
2019-05-02T08:09:56.874Z,97175.81
2019-05-02T08:11:01.690Z,97171.73
2019-05-02T08:12:05.362Z,97176.14
2019-05-02T08:13:12.220Z,97173.77
2019-05-02T08:14:14.848Z,97179.45
2019-05-02T08:15:17.248Z,97175.76
2019-05-02T08:16:27.357Z,97177.34
2019-05-02T08:17:27.004Z,97185.53
2019-05-02T08:18:30.382Z,97181.55
2019-05-02T08:19:37.575Z,97190.28
2019-05-02T08:20:38.094Z,97186.95
2019-05-02T08:21:40.474Z,97185.03
2019-05-02T08:22:44.165Z,97188.08
2019-05-02T08:23:48.400Z,97178.23
2019-05-02T08:24:50.379Z,97177.64
2019-05-02T08:25:53.152Z,97188.81
2019-05-02T08:27:04.599Z,97184.38
2019-05-02T08:28:10.009Z,97171.82
2019-05-02T08:29:13.520Z,97182.64
2019-05-02T08:30:20.076Z,97183.17
2019-05-02T08:31:22.486Z,97182.09
2019-05-02T08:32:26.542Z,97180.23
2019-05-02T08:33:34.383Z,97183.22
2019-05-02T08:34:33.253Z,97188.75
2019-05-02T08:35:36.419Z,97178.98
2019-05-02T08:36:38.381Z,97181.42
2019-05-02T08:37:41.079Z,97181.14
2019-05-02T08:38:48.903Z,97179.43
2019-05-02T08:39:48.394Z,97178.72
2019-05-02T08:40:51.137Z,97174.83
2019-05-02T08:41:56.494Z,97168.91
2019-05-02T08:42:57.471Z,97179.66
2019-05-02T08:44:00.117Z,97186.95
2019-05-02T08:45:05.931Z,97181.95
2019-05-02T08:46:14.537Z,97179.13
2019-05-02T08:47:19.057Z,97178.23
2019-05-02T08:48:18.921Z,97174.45
2019-05-02T08:49:21.625Z,97171.05
2019-05-02T08:50:27.247Z,97165.19
2019-05-02T08:51:28.408Z,97174.67
2019-05-02T08:52:31.591Z,97181.27
2019-05-02T08:53:34.115Z,97177.64
2019-05-02T08:54:36.360Z,97165.81
2019-05-02T08:55:41.319Z,97178.40
2019-05-02T08:56:46.153Z,97181.94
2019-05-02T08:57:48.661Z,97185.61
2019-05-02T08:58:51.259Z,97181.37
2019-05-02T08:59:55.322Z,97182.86
2019-05-02T09:00:57.891Z,97171.33
2019-05-02T09:02:00.550Z,97173.53
2019-05-02T09:03:04.781Z,97164.95
2019-05-02T09:04:07.279Z,97174.06
2019-05-02T09:05:10.336Z,97171.45
2019-05-02T09:06:17.225Z,97170.80
2019-05-02T09:07:19.288Z,97180.42
2019-05-02T09:08:21.668Z,97177.53
2019-05-02T09:09:28.091Z,97171.45
2019-05-02T09:10:30.101Z,97173.22
2019-05-02T09:11:33.650Z,97174.41
2019-05-02T09:12:36.934Z,97177.51
2019-05-02T09:13:42.062Z,97164.79
2019-05-02T09:14:44.346Z,97164.61
2019-05-02T09:15:51.286Z,97174.84
2019-05-02T09:16:53.526Z,97172.90
2019-05-02T09:17:56.659Z,97167.02
2019-05-02T09:18:58.497Z,97162.05
2019-05-02T09:20:10.563Z,97162.58
2019-05-02T09:21:08.386Z,97167.55
2019-05-02T09:22:13.236Z,97168.77
2019-05-02T09:23:16.693Z,97170.95
2019-05-02T09:24:23.221Z,97176.98
2019-05-02T09:25:23.320Z,97178.41
2019-05-02T09:26:35.157Z,97159.31
2019-05-02T09:27:31.726Z,97161.55
2019-05-02T09:28:34.355Z,97165.15
2019-05-02T09:29:37.316Z,97173.83
2019-05-02T09:30:41.857Z,97154.56
2019-05-02T09:31:46.229Z,97164.50
2019-05-02T09:32:52.285Z,97161.76
2019-05-02T09:33:55.713Z,97157.55
2019-05-02T09:35:02.190Z,97163.63
2019-05-02T09:36:02.482Z,97148.97
2019-05-02T09:37:04.554Z,97160.35
2019-05-02T09:38:06.951Z,97160.52
2019-05-02T09:39:11.903Z,97170.42
2019-05-02T09:40:16.841Z,97150.50
2019-05-02T09:41:20.149Z,97168.77
2019-05-02T09:42:24.008Z,97168.19
2019-05-02T09:43:29.365Z,97167.42
2019-05-02T09:44:33.223Z,97171.20
2019-05-02T09:45:37.576Z,97174.52
2019-05-02T09:46:42.628Z,97175.14
2019-05-02T09:47:56.646Z,97176.01
2019-05-02T09:48:51.848Z,97182.47
2019-05-02T09:50:08.078Z,97168.69
2019-05-02T09:51:16.796Z,97169.08
2019-05-02T09:52:15.739Z,97167.28
2019-05-02T09:53:20.854Z,97162.17
2019-05-02T09:54:24.300Z,97167.13
2019-05-02T09:55:29.084Z,97166.42
2019-05-02T09:56:33.591Z,97163.98
2019-05-02T09:57:37.992Z,97164.66
2019-05-02T09:58:44.600Z,97172.58
2019-05-02T09:59:50.662Z,97164.79
2019-05-02T10:00:58.925Z,97157.37
2019-05-02T10:02:03.001Z,97162.34
2019-05-02T10:03:06.552Z,97162.70
2019-05-02T10:04:11.864Z,97156.41
2019-05-02T10:05:14.699Z,97160.05
2019-05-02T10:06:18.341Z,97161.38
2019-05-02T10:07:22.270Z,97166.13
2019-05-02T10:08:24.878Z,97157.88
2019-05-02T10:09:29.155Z,97151.61
2019-05-02T10:10:32.508Z,97158.34
2019-05-02T10:11:35.575Z,97159.14
2019-05-02T10:12:37.908Z,97154.56
2019-05-02T10:13:42.418Z,97156.84
2019-05-02T10:14:44.949Z,97155.89
2019-05-02T10:15:47.507Z,97153.67
2019-05-02T10:16:49.743Z,97158.25
2019-05-02T10:17:52.612Z,97159.83
2019-05-02T10:19:00.273Z,97164.83
2019-05-02T10:20:02.056Z,97158.17
2019-05-02T10:21:07.793Z,97165.95
2019-05-02T10:22:12.281Z,97154.58
2019-05-02T10:23:19.709Z,97156.96
2019-05-02T10:24:19.292Z,97154.16
2019-05-02T10:25:23.161Z,97158.87
2019-05-02T10:26:27.731Z,97153.39
2019-05-02T10:27:29.881Z,97151.56
2019-05-02T10:28:33.735Z,97160.20
2019-05-02T10:29:36.236Z,97149.04
2019-05-02T10:30:39.170Z,97144.68
2019-05-02T10:31:42.191Z,97144.22
2019-05-02T10:32:47.286Z,97148.36
2019-05-02T10:33:48.855Z,97158.95
2019-05-02T10:34:55.230Z,97153.86
2019-05-02T10:35:57.035Z,97152.06
2019-05-02T10:37:00.249Z,97155.70
2019-05-02T10:38:03.589Z,97152.53
2019-05-02T10:39:07.461Z,97150.59
2019-05-02T10:40:13.469Z,97144.54
2019-05-02T10:41:14.830Z,97157.54
2019-05-02T10:42:16.777Z,97144.08
2019-05-02T10:43:19.881Z,97142.31
2019-05-02T10:44:22.715Z,97143.17
2019-05-02T10:45:25.345Z,97140.61
2019-05-02T10:46:33.401Z,97137.84
2019-05-02T10:47:36.416Z,97137.34
2019-05-02T10:48:42.797Z,97135.76
2019-05-02T10:49:47.031Z,97144.19
2019-05-02T10:50:49.249Z,97132.80
2019-05-02T10:51:53.886Z,97142.85
2019-05-02T10:52:56.495Z,97122.86
2019-05-02T10:53:59.220Z,97141.59
2019-05-02T10:55:02.710Z,97148.25
2019-05-02T10:56:05.631Z,97127.54
2019-05-02T10:57:08.912Z,97134.09
2019-05-02T10:58:13.073Z,97121.16
2019-05-02T10:59:16.090Z,97140.32
2019-05-02T11:00:22.114Z,97134.38
2019-05-02T11:01:26.078Z,97130.95
2019-05-02T11:02:47.200Z,97139.55
2019-05-02T11:03:51.954Z,97128.70
2019-05-02T11:04:56.380Z,97121.09
2019-05-02T11:06:05.707Z,97134.11
2019-05-02T11:07:07.368Z,97123.52
2019-05-02T11:08:12.920Z,97117.13
2019-05-02T11:09:22.452Z,97123.58
2019-05-02T11:10:22.170Z,97122.02
2019-05-02T11:11:24.506Z,97127.00
2019-05-02T11:12:41.936Z,97125.84
2019-05-02T11:13:44.240Z,97126.45
2019-05-02T11:14:51.775Z,97122.95
2019-05-02T11:16:01.711Z,97133.69
2019-05-02T11:17:17.671Z,97132.45
2019-05-02T11:18:23.382Z,97123.93
2019-05-02T11:19:44.024Z,97132.70
2019-05-02T11:20:46.748Z,97120.63
2019-05-02T11:21:56.522Z,97129.89
2019-05-02T11:22:57.578Z,97121.16
2019-05-02T11:24:02.608Z,97115.15
2019-05-02T11:25:05.994Z,97127.75
2019-05-02T11:26:08.350Z,97131.37
2019-05-02T11:27:14.181Z,97128.41
2019-05-02T11:28:17.546Z,97133.02
2019-05-02T11:29:20.201Z,97130.00
2019-05-02T11:30:26.490Z,97134.00
2019-05-02T11:31:27.757Z,97131.33
2019-05-02T11:32:32.562Z,97126.17
2019-05-02T11:33:35.469Z,97126.41
2019-05-02T11:34:37.801Z,97116.55
2019-05-02T11:35:41.657Z,97121.77
2019-05-02T11:36:46.753Z,97126.80
2019-05-02T11:37:49.254Z,97128.35
2019-05-02T11:38:59.049Z,97124.77
2019-05-02T11:40:00.289Z,97116.98
2019-05-02T11:41:02.753Z,97111.55
2019-05-02T11:42:07.251Z,97114.50
2019-05-02T11:43:09.245Z,97111.84
2019-05-02T11:44:13.091Z,97122.98
2019-05-02T11:45:15.928Z,97117.05
2019-05-02T11:46:21.614Z,97124.34
2019-05-02T11:47:26.698Z,97117.42
2019-05-02T11:48:29.556Z,97121.35
2019-05-02T11:49:32.119Z,97115.63
2019-05-02T11:50:35.565Z,97120.84
2019-05-02T11:51:38.196Z,97120.78
2019-05-02T11:52:42.391Z,97119.45
2019-05-02T11:53:45.209Z,97119.64
2019-05-02T11:54:48.636Z,97110.64
2019-05-02T11:55:53.174Z,97129.09
2019-05-02T11:56:55.909Z,97126.52
2019-05-02T11:58:00.812Z,97131.73
2019-05-02T11:59:03.074Z,97136.78
2019-05-02T12:00:09.026Z,97131.35
2019-05-02T12:01:12.574Z,97120.55
2019-05-02T12:02:19.000Z,97124.55
2019-05-02T12:03:35.534Z,97130.23
2019-05-02T12:04:33.982Z,97133.95
2019-05-02T12:05:39.308Z,97126.30
2019-05-02T12:06:42.267Z,97119.75
2019-05-02T12:07:45.012Z,97114.47
2019-05-02T12:08:49.518Z,97121.73
2019-05-02T12:09:56.905Z,97127.58
2019-05-02T12:10:55.580Z,97126.47
2019-05-02T12:11:59.708Z,97113.73
2019-05-02T12:13:06.688Z,97106.77
2019-05-02T12:14:07.228Z,97112.17
2019-05-02T12:15:11.964Z,97110.48
2019-05-02T12:16:16.103Z,97113.44
2019-05-02T12:17:18.921Z,97113.80
2019-05-02T12:18:23.423Z,97111.34
2019-05-02T12:19:27.994Z,97112.11
2019-05-02T12:20:33.781Z,97106.62
2019-05-02T12:21:34.849Z,97108.75
2019-05-02T12:22:37.817Z,97121.17
2019-05-02T12:23:41.830Z,97114.25
2019-05-02T12:24:45.455Z,97108.75
2019-05-02T12:25:48.407Z,97109.92
2019-05-02T12:26:52.686Z,97114.41
2019-05-02T12:27:54.937Z,97114.22
2019-05-02T12:28:57.350Z,97108.95
2019-05-02T12:30:03.126Z,97116.86
2019-05-02T12:31:13.245Z,97111.45
2019-05-02T12:32:16.289Z,97106.05
2019-05-02T12:33:22.208Z,97114.79
2019-05-02T12:34:24.787Z,97116.60
2019-05-02T12:35:28.181Z,97111.52